Time;durP1;ratioP1;P1;durP2;ratioP2;P2;SDS_P1;SDS_P2;PMS_P1;PMS_P2;Temp;Humidity;BMP_temperature;BMP_pressure;BME280_temperature;BME280_humidity;BME280_pressure;Samples;Min_cycle;Max_cycle;Signal;HPM_P1;HPM_P2
2021/11/15 00:02:22;;;;;;;;;;;;;;;5.43;86.24;99160.89;1743119;82;21202;-96
2021/11/15 00:04:48;;;;;;;;;;;;;;;5.44;86.33;99166.03;1709400;84;24626;-96
2021/11/15 00:07:14;;;;;;;;;;;;;;;5.45;86.38;99167.70;1740559;82;20713;-96
2021/11/15 00:09:42;;;;;;;;;;;;;;;5.47;86.44;99166.35;1740800;82;20215;-95
2021/11/15 00:12:09;;;;;;;;;;;;;;;5.46;86.52;99165.95;1709586;84;21750;-95
2021/11/15 00:14:35;;;;;;;;;;;;;;;5.45;86.55;99165.59;1709542;84;25906;-94
2021/11/15 00:17:02;;;;;;;;;;;;;;;5.40;86.57;99164.44;1709412;84;24569;-96
2021/11/15 00:19:28;;;;;;;;;;;;;;;5.36;86.62;99158.97;1709323;84;20139;-96
2021/11/15 00:21:54;;;;;;;;;;;;;;;5.37;86.67;99170.20;1740045;82;25087;-96
2021/11/15 00:24:20;;;;;;;;;;;;;;;5.36;86.71;99167.20;1709801;84;21965;-95
2021/11/15 00:26:46;;;;;;;;;;;;;;;5.37;86.75;99176.23;1740599;82;20970;-95
2021/11/15 00:29:12;;;;;;;;;;;;;;;5.34;86.81;99176.37;1700580;83;25553;-96
2021/11/15 00:31:38;;;;;;;;;;;;;;;5.36;86.87;99174.98;1740427;82;20260;-95
2021/11/15 00:34:04;;;;;;;;;;;;;;;5.38;86.90;99173.20;1709590;84;24947;-96
2021/11/15 00:36:31;;;;;;;;;;;;;;;5.40;86.96;99176.11;1740558;82;21880;-96
2021/11/15 00:42:19;;;;;;;;;;;;;;;5.38;87.05;99171.90;1773362;79;20553;-96
2021/11/15 00:44:45;;;;;;;;;;;;;;;5.34;87.13;99176.81;1812043;78;20271;-96
2021/11/15 00:47:11;;;;;;;;;;;;;;;5.30;87.16;99178.66;1812187;78;25137;-96
2021/11/15 00:49:37;;;;;;;;;;;;;;;5.32;87.20;99183.80;1812134;78;20249;-95
2021/11/15 00:52:04;;;;;;;;;;;;;;;5.30;87.22;99185.14;1812099;79;25936;-96
2021/11/15 00:54:30;;;;;;;;;;;;;;;5.29;87.28;99187.81;1787060;78;24504;-95
2021/11/15 00:56:56;;;;;;;;;;;;;;;5.27;87.34;99181.38;1811842;78;20269;-95
2021/11/15 00:59:22;;;;;;;;;;;;;;;5.24;87.39;99178.03;1812093;78;25009;-95
2021/11/15 01:01:48;;;;;;;;;;;;;;;5.21;87.43;99178.16;1814979;78;23477;-93
2021/11/15 01:04:14;;;;;;;;;;;;;;;5.21;87.47;99180.30;1812512;78;25927;-95
2021/11/15 01:06:40;;;;;;;;;;;;;;;5.20;87.54;99176.00;1811977;78;20359;-96
2021/11/15 01:09:06;;;;;;;;;;;;;;;5.23;87.58;99186.30;1812030;78;20553;-96
2021/11/15 01:11:33;;;;;;;;;;;;;;;5.24;87.64;99181.47;1811978;78;25090;-95
2021/11/15 01:14:01;;;;;;;;;;;;;;;5.21;87.71;99183.34;1811942;78;21808;-95
2021/11/15 01:16:27;;;;;;;;;;;;;;;5.21;87.76;99182.05;1812015;78;25978;-95
2021/11/15 01:18:53;;;;;;;;;;;;;;;5.22;87.82;99183.30;1811909;78;24420;-94
2021/11/15 01:21:25;;;;;;;;;;;;;;;5.23;87.88;99176.36;1812044;79;20535;-95
2021/11/15 01:23:47;;;;;;;;;;;;;;;5.20;87.93;99181.20;1811753;78;24984;-95
2021/11/15 01:26:13;;;;;;;;;;;;;;;5.21;87.99;99189.83;1812367;78;20238;-96
2021/11/15 01:28:39;;;;;;;;;;;;;;;5.20;88.04;99193.32;1812440;79;25998;-96
2021/11/15 01:31:05;;;;;;;;;;;;;;;5.16;88.08;99184.81;1811730;78;24456;-95
2021/11/15 01:33:32;;;;;;;;;;;;;;;5.13;88.13;99175.82;1814111;78;20201;-95
2021/11/15 01:35:58;;;;;;;;;;;;;;;5.21;88.20;99185.48;1812013;78;24934;-94
2021/11/15 01:38:25;;;;;;;;;;;;;;;5.23;88.24;99190.63;1812135;78;21723;-96
2021/11/15 01:40:51;;;;;;;;;;;;;;;5.22;88.28;99190.23;1813496;78;26459;-95
2021/11/15 01:43:17;;;;;;;;;;;;;;;5.24;88.34;99193.14;1811687;78;24409;-96
2021/11/15 01:45:43;;;;;;;;;;;;;;;5.26;88.38;99188.76;1811781;78;20285;-96
2021/11/15 01:48:09;;;;;;;;;;;;;;;5.28;88.44;99186.12;1811914;78;20683;-96
2021/11/15 01:50:36;;;;;;;;;;;;;;;5.29;88.51;99190.41;1812242;79;21943;-95
2021/11/15 01:53:04;;;;;;;;;;;;;;;5.27;88.56;99187.86;1787359;78;26927;-95
2021/11/15 01:55:30;;;;;;;;;;;;;;;5.26;88.60;99186.61;1812790;78;24482;-95
2021/11/15 01:57:58;;;;;;;;;;;;;;;5.24;88.63;99186.66;1812649;78;20264;-95
2021/11/15 02:00:26;;;;;;;;;;;;;;;5.25;88.66;99201.78;1811923;78;25072;-95
2021/11/15 02:02:52;;;;;;;;;;;;;;;5.24;88.70;99201.37;1810152;78;21852;-96
2021/11/15 02:05:18;;;;;;;;;;;;;;;5.25;88.76;99197.89;1814114;78;25901;-95
2021/11/15 02:07:44;;;;;;;;;;;;;;;5.24;88.79;99198.34;1812560;78;24357;-95
2021/11/15 02:10:11;;;;;;;;;;;;;;;5.23;88.83;99203.16;1813974;78;20249;-94
2021/11/15 02:12:38;;;;;;;;;;;;;;;5.22;88.88;99204.50;1811928;78;24942;-95
2021/11/15 02:15:05;;;;;;;;;;;;;;;5.22;88.91;99203.20;1812503;78;22072;-96
2021/11/15 02:17:32;;;;;;;;;;;;;;;5.22;88.95;99209.24;1812999;78;25986;-94
2021/11/15 02:20:00;;;;;;;;;;;;;;;5.19;88.99;99206.73;1812385;79;24658;-94
2021/11/15 02:22:26;;;;;;;;;;;;;;;5.21;89.02;99199.76;1813713;78;20269;-95
2021/11/15 02:24:52;;;;;;;;;;;;;;;5.21;89.08;99204.95;1812223;78;24993;-95
2021/11/15 02:27:18;;;;;;;;;;;;;;;5.20;89.14;99203.25;1812587;78;20250;-95
2021/11/15 02:29:44;;;;;;;;;;;;;;;5.20;89.15;99207.14;1812232;78;25915;-95
2021/11/15 02:32:10;;;;;;;;;;;;;;;5.20;89.21;99208.89;1812033;78;20280;-96
2021/11/15 02:34:36;;;;;;;;;;;;;;;5.22;89.24;99207.09;1812429;78;20229;-96
2021/11/15 02:37:03;;;;;;;;;;;;;;;5.20;89.29;99206.30;1786878;79;20229;-94
2021/11/15 02:39:29;;;;;;;;;;;;;;;5.24;89.34;99206.57;1812386;78;22067;-96
2021/11/15 02:41:55;;;;;;;;;;;;;;;5.24;89.37;99214.35;1804210;78;26922;-94
2021/11/15 02:44:22;;;;;;;;;;;;;;;5.21;89.40;99208.84;1750102;79;24528;-96
2021/11/15 02:46:48;;;;;;;;;;;;;;;5.20;89.46;99207.59;1752064;81;20188;-96
2021/11/15 02:49:14;;;;;;;;;;;;;;;5.20;89.46;99208.44;1752633;80;25186;-94
2021/11/15 02:51:40;;;;;;;;;;;;;;;5.22;89.49;99210.98;1752633;80;21913;-95
2021/11/15 02:54:06;;;;;;;;;;;;;;;5.21;89.54;99209.29;1752963;80;21111;-95
2021/11/15 02:56:42;;;;;;;;;;;;;;;5.20;89.57;99208.44;1752649;80;24390;-96
2021/11/15 02:59:05;;;;;;;;;;;;;;;5.21;89.59;99215.33;1745809;80;20199;-96
2021/11/15 03:01:33;;;;;;;;;;;;;;;5.24;89.65;99216.95;1751237;80;20643;-96
2021/11/15 03:04:03;;;;;;;;;;;;;;;5.22;89.67;99209.69;1751166;80;20159;-95
2021/11/15 03:06:29;;;;;;;;;;;;;;;5.24;89.69;99211.31;1752704;80;21058;-95
2021/11/15 03:08:55;;;;;;;;;;;;;;;5.25;89.74;99209.12;1752667;80;20281;-95
2021/11/15 03:11:22;;;;;;;;;;;;;;;5.26;89.78;99211.27;1753097;80;20230;-94
2021/11/15 03:13:48;;;;;;;;;;;;;;;5.26;89.82;99209.52;1752796;82;24968;-96
2021/11/15 03:16:14;;;;;;;;;;;;;;;5.28;89.85;99208.17;1752384;81;22018;-96
2021/11/15 03:18:41;;;;;;;;;;;;;;;5.28;89.88;99212.92;1752704;80;25913;-95
2021/11/15 03:21:09;;;;;;;;;;;;;;;5.28;89.89;99209.03;1752638;80;24428;-95
2021/11/15 03:23:36;;;;;;;;;;;;;;;5.29;89.95;99211.17;1752618;82;20183;-95
2021/11/15 03:26:03;;;;;;;;;;;;;;;5.33;89.96;99206.27;1753072;80;24960;-94
2021/11/15 03:28:31;;;;;;;;;;;;;;;5.35;90.01;99211.77;1752758;82;21919;-96
2021/11/15 03:30:59;;;;;;;;;;;;;;;5.33;90.03;99205.81;1752763;80;25938;-95
2021/11/15 03:33:26;;;;;;;;;;;;;;;5.32;90.05;99209.30;1752236;81;24385;-95
2021/11/15 03:35:52;;;;;;;;;;;;;;;5.30;90.06;99212.84;1727701;81;20238;-96
2021/11/15 03:38:18;;;;;;;;;;;;;;;5.30;90.08;99208.95;1752831;80;24935;-96
2021/11/15 03:40:44;;;;;;;;;;;;;;;5.28;90.09;99208.17;1752722;80;20374;-96
2021/11/15 03:43:10;;;;;;;;;;;;;;;5.29;90.11;99214.59;1753036;81;26016;-95
2021/11/15 03:45:52;;;;;;;;;;;;;;;5.29;90.14;99216.36;1755629;82;24550;-94
2021/11/15 03:48:12;;;;;;;;;;;;;;;5.27;90.15;99219.45;1752611;80;20171;-96
2021/11/15 03:50:39;;;;;;;;;;;;;;;5.23;90.17;99213.98;1756207;80;24901;-96
2021/11/15 03:53:07;;;;;;;;;;;;;;;5.21;90.19;99215.33;1754982;80;21970;-96
2021/11/15 03:55:33;;;;;;;;;;;;;;;5.21;90.21;99218.38;1754576;82;26052;-96
2021/11/15 03:57:59;;;;;;;;;;;;;;;5.21;90.22;99213.18;1755052;81;24555;-95
2021/11/15 04:00:27;;;;;;;;;;;;;;;5.23;90.26;99211.39;1755219;80;20260;-96
2021/11/15 04:02:55;;;;;;;;;;;;;;;5.23;90.29;99214.84;1755357;82;24952;-96
2021/11/15 04:05:30;;;;;;;;;;;;;;;5.23;90.32;99205.75;1724130;82;20478;-95
2021/11/15 04:11:19;;;;;;;;;;;;;;;5.21;90.37;99209.29;1754919;82;20553;-96
2021/11/15 04:13:47;;;;;;;;;;;;;;;5.20;90.43;99199.80;1755312;80;20237;-95
2021/11/15 04:16:15;;;;;;;;;;;;;;;5.20;90.45;99200.66;1755602;80;24975;-96
2021/11/15 04:18:43;;;;;;;;;;;;;;;5.18;90.48;99193.84;1755258;80;21811;-95
2021/11/15 04:21:11;;;;;;;;;;;;;;;5.18;90.51;99195.99;1722817;82;25995;-96
2021/11/15 04:23:38;;;;;;;;;;;;;;;5.20;90.54;99191.58;1755367;80;24633;-96
2021/11/15 04:26:04;;;;;;;;;;;;;;;5.20;90.56;99196.77;1755560;82;20159;-95
2021/11/15 04:28:30;;;;;;;;;;;;;;;5.19;90.60;99193.77;1755877;80;24948;-96
2021/11/15 04:30:56;;;;;;;;;;;;;;;5.20;90.64;99187.69;1723722;82;21646;-96
2021/11/15 04:33:27;;;;;;;;;;;;;;;5.22;90.65;99192.37;1723317;82;26203;-95
2021/11/15 04:39:00;;;;;;;;;;;;;;;5.23;90.72;99185.44;1754785;82;20203;-96
2021/11/15 04:41:28;;;;;;;;;;;;;;;5.24;90.76;99181.47;1754497;80;20548;-95
2021/11/15 04:43:54;;;;;;;;;;;;;;;5.24;90.79;99188.41;1758384;80;20245;-96
2021/11/15 04:46:20;;;;;;;;;;;;;;;5.25;90.82;99191.40;1763372;81;26002;-96
2021/11/15 04:48:46;;;;;;;;;;;;;;;5.25;90.85;99194.00;1763797;81;24401;-96
2021/11/15 04:54:38;;;;;;;;;;;;;;;5.23;90.88;99187.59;1763934;81;21106;-96
2021/11/15 05:00:27;;;;;;;;;;;;;;;5.19;90.94;99196.36;1763216;81;22150;-96
2021/11/15 05:02:53;;;;;;;;;;;;;;;5.17;90.95;99193.00;1763287;81;24460;-95
2021/11/15 05:05:20;;;;;;;;;;;;;;;5.19;90.98;99189.88;1766906;81;20739;-96
2021/11/15 05:07:47;;;;;;;;;;;;;;;5.18;91.00;99194.70;1763376;81;25036;-95
2021/11/15 05:10:14;;;;;;;;;;;;;;;5.17;91.02;99195.59;1764213;81;21992;-94
2021/11/15 05:16:01;;;;;;;;;;;;;;;5.14;91.05;99193.53;1763519;81;20664;-96
2021/11/15 05:18:27;;;;;;;;;;;;;;;5.13;91.11;99192.69;1763533;81;20540;-93
2021/11/15 05:20:53;;;;;;;;;;;;;;;5.11;91.10;99198.40;1763800;81;20323;-96
2021/11/15 05:26:41;;;;;;;;;;;;;;;5.09;91.17;99195.00;1763558;81;22091;-96
2021/11/15 05:29:10;;;;;;;;;;;;;;;5.08;91.20;99195.89;1763446;79;24422;-96
2021/11/15 05:31:36;;;;;;;;;;;;;;;5.08;91.25;99189.41;1743059;81;20222;-94
2021/11/15 05:34:03;;;;;;;;;;;;;;;5.08;91.27;99186.81;1763323;81;20237;-94
2021/11/15 05:36:30;;;;;;;;;;;;;;;5.08;91.28;99192.00;1742055;81;21985;-96
2021/11/15 05:38:56;;;;;;;;;;;;;;;5.10;91.32;99195.41;1763702;81;26205;-95
2021/11/15 05:41:22;;;;;;;;;;;;;;;5.11;91.37;99193.21;1737027;81;24438;-96
2021/11/15 05:43:48;;;;;;;;;;;;;;;5.09;91.39;99197.59;1763871;79;20273;-96
2021/11/15 05:46:14;;;;;;;;;;;;;;;5.10;91.42;99196.70;1755360;80;25163;-94
2021/11/15 05:48:41;;;;;;;;;;;;;;;5.10;91.48;99203.19;1755333;82;21925;-95
2021/11/15 05:51:07;;;;;;;;;;;;;;;5.09;91.49;99205.83;1748234;80;22265;-96
2021/11/15 05:53:36;;;;;;;;;;;;;;;5.07;91.50;99208.50;1754763;82;24487;-95
2021/11/15 05:56:01;;;;;;;;;;;;;;;5.08;91.54;99208.02;1754463;82;20477;-95
2021/11/15 05:58:27;;;;;;;;;;;;;;;5.08;91.55;99200.23;1736145;82;24934;-95
2021/11/15 06:00:53;;;;;;;;;;;;;;;5.09;91.59;99207.97;1736700;82;20235;-96
2021/11/15 06:03:20;;;;;;;;;;;;;;;5.09;91.61;99213.16;1736132;82;20943;-96
2021/11/15 06:05:47;;;;;;;;;;;;;;;5.07;91.63;99216.28;1736480;82;24438;-95
2021/11/15 06:08:13;;;;;;;;;;;;;;;5.08;91.67;99216.65;1755939;80;20465;-96
2021/11/15 06:10:39;;;;;;;;;;;;;;;5.09;91.69;99217.50;1754923;80;25016;-96
2021/11/15 06:13:06;;;;;;;;;;;;;;;5.09;91.71;99218.80;1754853;82;22190;-96
2021/11/15 06:15:33;;;;;;;;;;;;;;;5.08;91.72;99228.32;1754775;82;26059;-94
2021/11/15 06:17:59;;;;;;;;;;;;;;;5.08;91.77;99237.41;1723228;82;24423;-94
2021/11/15 06:20:25;;;;;;;;;;;;;;;5.10;91.78;99243.39;1748004;80;20243;-96
2021/11/15 06:22:51;;;;;;;;;;;;;;;5.09;91.80;99243.44;1748548;80;25068;-95
2021/11/15 06:25:18;;;;;;;;;;;;;;;5.09;91.81;99240.84;1755768;80;21929;-95
2021/11/15 06:31:08;;;;;;;;;;;;;;;5.07;91.88;99242.22;1755026;82;20550;-95
2021/11/15 06:33:33;;;;;;;;;;;;;;;5.07;91.90;99244.81;1754896;80;20139;-94
2021/11/15 06:35:59;;;;;;;;;;;;;;;5.07;91.93;99247.41;1755172;81;24948;-96
2021/11/15 06:38:26;;;;;;;;;;;;;;;5.05;91.95;99244.01;1724125;82;21708;-96
2021/11/15 06:40:52;;;;;;;;;;;;;;;5.06;91.95;99245.71;1755024;80;26045;-95
2021/11/15 06:43:18;;;;;;;;;;;;;;;5.07;92.00;99248.70;1754801;81;24568;-95
2021/11/15 06:45:44;;;;;;;;;;;;;;;5.07;92.02;99248.70;1754950;81;20175;-96
2021/11/15 06:48:10;;;;;;;;;;;;;;;5.09;92.05;99258.56;1755058;82;25068;-95
2021/11/15 06:50:36;;;;;;;;;;;;;;;5.10;92.07;99258.96;1754486;82;22011;-94
2021/11/15 06:53:02;;;;;;;;;;;;;;;5.10;92.09;99262.86;1754767;80;25942;-94
2021/11/15 06:55:31;;;;;;;;;;;;;;;5.12;92.12;99260.22;1754675;82;20309;-96
2021/11/15 06:57:57;;;;;;;;;;;;;;;5.13;92.16;99266.63;1723590;82;20938;-95
2021/11/15 07:00:25;;;;;;;;;;;;;;;5.11;92.19;99268.45;1755277;80;24854;-95
2021/11/15 07:02:53;;;;;;;;;;;;;;;5.10;92.20;99268.05;1748043;80;22478;-96
2021/11/15 07:05:21;;;;;;;;;;;;;;;5.11;92.22;99266.30;1755213;82;26024;-95
2021/11/15 07:07:49;;;;;;;;;;;;;;;5.11;92.25;99269.74;1754859;80;24398;-96
2021/11/15 07:10:16;;;;;;;;;;;;;;;5.13;92.26;99275.70;1754772;81;20190;-95
2021/11/15 07:12:42;;;;;;;;;;;;;;;5.17;92.30;99273.88;1754924;82;24983;-96
2021/11/15 07:15:09;;;;;;;;;;;;;;;5.17;92.30;99276.47;1722885;82;21926;-95
2021/11/15 07:21:01;;;;;;;;;;;;;;;5.22;92.37;99272.81;1754638;82;20553;-96
2021/11/15 07:23:27;;;;;;;;;;;;;;;5.22;92.37;99273.27;1755112;80;20241;-95
2021/11/15 07:25:54;;;;;;;;;;;;;;;5.20;92.40;99278.50;1754786;80;24969;-94
2021/11/15 07:28:21;;;;;;;;;;;;;;;5.22;92.39;99274.11;1754577;80;22005;-96
2021/11/15 07:30:48;;;;;;;;;;;;;;;5.23;92.41;99267.17;1747979;80;27368;-95
2021/11/15 07:33:15;;;;;;;;;;;;;;;5.25;92.44;99267.50;1755206;80;24444;-96
2021/11/15 07:35:42;;;;;;;;;;;;;;;5.27;92.46;99274.80;1754520;80;20438;-96
2021/11/15 07:38:08;;;;;;;;;;;;;;;5.30;92.46;99275.13;1754770;80;25673;-94
2021/11/15 07:40:34;;;;;;;;;;;;;;;5.33;92.50;99267.25;1723260;82;22116;-94
2021/11/15 07:43:00;;;;;;;;;;;;;;;5.34;92.50;99267.65;1755068;80;25955;-94
2021/11/15 07:45:26;;;;;;;;;;;;;;;5.37;92.54;99267.08;1775176;78;24382;-94
2021/11/15 07:47:52;;;;;;;;;;;;;;;5.39;92.53;99270.48;1788225;80;20200;-95
2021/11/15 07:50:21;;;;;;;;;;;;;;;5.42;92.58;99265.16;1787968;79;25239;-95
2021/11/15 07:52:47;;;;;;;;;;;;;;;5.43;92.58;99265.56;1788222;79;21727;-95
2021/11/15 07:55:14;;;;;;;;;;;;;;;5.45;92.60;99273.30;1787967;80;26017;-95
2021/11/15 07:57:42;;;;;;;;;;;;;;;5.47;92.61;99277.53;1788103;79;24491;-96
2021/11/15 08:00:09;;;;;;;;;;;;;;;5.51;92.64;99268.34;1788189;80;20223;-96
2021/11/15 08:02:35;;;;;;;;;;;;;;;5.55;92.64;99275.12;1787970;79;25034;-95
2021/11/15 08:05:02;;;;;;;;;;;;;;;5.58;92.66;99274.99;1788493;79;22132;-95
2021/11/15 08:07:28;;;;;;;;;;;;;;;5.59;92.67;99274.09;1788134;79;26017;-95
2021/11/15 08:09:54;;;;;;;;;;;;;;;5.59;92.66;99268.45;1757382;80;20306;-95
2021/11/15 08:12:21;;;;;;;;;;;;;;;5.63;92.70;99271.33;1788449;80;20275;-96
2021/11/15 08:14:51;;;;;;;;;;;;;;;5.69;92.69;99275.00;1783110;80;25964;-96
2021/11/15 08:17:17;;;;;;;;;;;;;;;5.73;92.70;99275.72;1787254;79;22153;-94
2021/11/15 08:19:43;;;;;;;;;;;;;;;5.75;92.73;99272.62;1787982;80;20785;-94
2021/11/15 08:22:09;;;;;;;;;;;;;;;5.77;92.73;99275.58;1787610;79;20247;-93
2021/11/15 08:24:40;;;;;;;;;;;;;;;5.82;92.75;99277.55;1786807;79;20247;-95
2021/11/15 08:27:06;;;;;;;;;;;;;;;5.86;92.75;99278.27;1761322;81;25036;-94
2021/11/15 08:29:33;;;;;;;;;;;;;;;5.89;92.78;99278.20;1757524;81;22119;-93
2021/11/15 08:32:06;;;;;;;;;;;;;;;5.93;92.77;99273.28;1769516;80;25955;-93
2021/11/15 08:34:33;;;;;;;;;;;;;;;5.96;92.78;99278.80;1793840;80;24551;-93
2021/11/15 08:36:59;;;;;;;;;;;;;;;5.95;92.77;99279.25;1794058;79;20541;-93
2021/11/15 08:39:26;;;;;;;;;;;;;;;5.97;92.77;99283.09;1794402;79;25146;-95
2021/11/15 08:41:55;;;;;;;;;;;;;;;5.95;92.76;99285.74;1793993;80;21938;-93
2021/11/15 08:44:38;;;;;;;;;;;;;;;5.98;92.72;99285.64;1766960;80;26126;-94
2021/11/15 08:47:03;;;;;;;;;;;;;;;6.01;92.74;99292.02;1744193;80;24908;-94
2021/11/15 08:49:30;;;;;;;;;;;;;;;6.00;92.71;99290.31;1728193;82;20468;-94
2021/11/15 08:52:00;;;;;;;;;;;;;;;6.01;92.71;99286.81;1718442;82;24983;-94
2021/11/15 08:54:27;;;;;;;;;;;;;;;6.00;92.68;99281.22;1698242;83;21965;-95
2021/11/15 08:56:58;;;;;;;;;;;;;;;5.98;92.66;99285.64;1698394;84;26835;-94
2021/11/15 08:59:24;;;;;;;;;;;;;;;5.94;92.63;99278.88;1670358;84;24538;-95
2021/11/15 09:01:51;;;;;;;;;;;;;;;5.95;92.59;99282.30;1730518;83;20174;-95
2021/11/15 09:04:18;;;;;;;;;;;;;;;5.98;92.59;99292.14;1751583;81;24939;-94
2021/11/15 09:06:45;;;;;;;;;;;;;;;6.03;92.59;99285.47;1730341;83;21841;-95
2021/11/15 09:09:14;;;;;;;;;;;;;;;6.03;92.57;99287.62;1730535;83;25973;-94
2021/11/15 09:11:42;;;;;;;;;;;;;;;6.07;92.58;99292.23;1730196;83;24610;-96
2021/11/15 09:14:08;;;;;;;;;;;;;;;6.11;92.61;99293.84;1751513;81;20221;-95
2021/11/15 09:16:36;;;;;;;;;;;;;;;6.08;92.58;99284.84;1727912;82;20297;-94
2021/11/15 09:22:23;;;;;;;;;;;;;;;6.07;92.57;99292.23;1728046;83;22082;-94
2021/11/15 09:24:50;;;;;;;;;;;;;;;6.08;92.54;99284.39;1727722;83;24481;-93
2021/11/15 09:27:17;;;;;;;;;;;;;;;6.08;92.54;99286.14;1727841;83;20149;-96
2021/11/15 09:29:45;;;;;;;;;;;;;;;6.05;92.53;99289.72;1703897;83;24984;-95
2021/11/15 09:32:11;;;;;;;;;;;;;;;6.03;92.52;99286.77;1730899;83;21834;-96
2021/11/15 09:34:40;;;;;;;;;;;;;;;5.99;92.49;99287.34;1697967;83;21184;-96
2021/11/15 09:37:05;;;;;;;;;;;;;;;6.00;92.48;99280.41;1700119;83;24448;-94
2021/11/15 09:39:31;;;;;;;;;;;;;;;6.03;92.44;99285.02;1732545;82;20319;-95
2021/11/15 09:41:58;;;;;;;;;;;;;;;6.07;92.45;99282.69;1697459;84;20254;-95
2021/11/15 09:44:24;;;;;;;;;;;;;;;6.09;92.45;99281.34;1698783;84;22112;-96
2021/11/15 09:46:50;;;;;;;;;;;;;;;6.09;92.46;99285.23;1742297;80;26124;-95
2021/11/15 09:49:17;;;;;;;;;;;;;;;6.09;92.46;99286.09;1761401;81;24482;-95
2021/11/15 09:51:44;;;;;;;;;;;;;;;6.10;92.47;99284.34;1761419;80;20267;-96
2021/11/15 09:54:11;;;;;;;;;;;;;;;6.11;92.45;99282.95;1761477;80;25103;-95
2021/11/15 10:00:24;;;;;;;;;;;;;;;6.09;92.44;99275.70;1761565;81;22078;-96
2021/11/15 10:02:50;;;;;;;;;;;;;;;6.21;92.47;99285.63;1759392;80;24870;-96
2021/11/15 10:05:18;;;;;;;;;;;;;;;6.19;92.45;99286.13;1761372;81;20505;-95
2021/11/15 10:07:49;;;;;;;;;;;;;;;6.20;92.46;99281.33;1761642;80;25030;-95
2021/11/15 10:10:25;;;;;;;;;;;;;;;6.22;92.45;99292.49;1761710;81;23462;-94
2021/11/15 10:13:05;;;;;;;;;;;;;;;6.20;92.43;99293.02;1761735;81;26019;-95
2021/11/15 10:15:33;;;;;;;;;;;;;;;6.20;92.41;99290.42;1759165;80;24448;-93
2021/11/15 10:17:59;;;;;;;;;;;;;;;6.18;92.39;99287.02;1762846;80;20589;-96
2021/11/15 10:20:25;;;;;;;;;;;;;;;6.22;92.37;99296.39;1761982;81;20235;-95
2021/11/15 10:22:56;;;;;;;;;;;;;;;6.24;92.37;99289.39;1761634;81;20244;-95
2021/11/15 10:25:30;;;;;;;;;;;;;;;6.27;92.37;99289.26;1770004;80;25998;-95
2021/11/15 10:28:09;;;;;;;;;;;;;;;6.30;92.38;99288.31;1750114;81;24503;-96
2021/11/15 10:30:36;;;;;;;;;;;;;;;6.32;92.35;99286.95;1773387;81;20239;-94
2021/11/15 10:33:06;;;;;;;;;;;;;;;6.28;92.36;99288.36;1761260;80;25797;-95
2021/11/15 10:35:40;;;;;;;;;;;;;;;6.28;92.32;99290.95;1799488;79;21865;-95
2021/11/15 10:38:06;;;;;;;;;;;;;;;6.27;92.30;99286.66;1801376;79;26100;-95
2021/11/15 10:40:34;;;;;;;;;;;;;;;6.29;92.27;99287.91;1800854;78;24683;-95
2021/11/15 10:43:02;;;;;;;;;;;;;;;6.33;92.26;99288.17;1801460;79;20262;-95
2021/11/15 10:45:28;;;;;;;;;;;;;;;6.36;92.25;99283.33;1800131;78;25574;-94
2021/11/15 10:47:56;;;;;;;;;;;;;;;6.40;92.26;99284.89;1783485;80;21998;-95
2021/11/15 10:50:29;;;;;;;;;;;;;;;6.42;92.25;99286.98;1783704;80;25922;-94
2021/11/15 10:56:21;;;;;;;;;;;;;;;6.44;92.23;99282.10;1783760;80;20361;-95
2021/11/15 10:58:46;;;;;;;;;;;;;;;6.37;92.19;99284.58;1783435;80;24842;-95
2021/11/15 11:01:12;;;;;;;;;;;;;;;6.35;92.14;99286.83;1783644;80;21909;-95
2021/11/15 11:03:41;;;;;;;;;;;;;;;6.33;92.08;99286.06;1783558;80;26024;-95
2021/11/15 11:06:11;;;;;;;;;;;;;;;6.33;92.05;99288.17;1783652;80;24487;-94
2021/11/15 11:08:41;;;;;;;;;;;;;;;6.39;92.01;99289.69;1783144;79;20205;-95
2021/11/15 11:11:12;;;;;;;;;;;;;;;6.44;92.02;99291.20;1783641;80;24938;-95
2021/11/15 11:13:48;;;;;;;;;;;;;;;6.49;91.99;99294.95;1783667;80;21936;-95
2021/11/15 11:16:14;;;;;;;;;;;;;;;6.54;92.00;99285.20;1783725;80;27281;-95
2021/11/15 11:18:55;;;;;;;;;;;;;;;6.60;92.00;99286.27;1783486;80;24625;-95
2021/11/15 11:26:42;;;;;;;;;;;;;;;6.82;92.04;99277.95;1783516;80;22122;-95
2021/11/15 11:29:10;;;;;;;;;;;;;;;6.87;92.07;99277.79;1783738;80;25988;-95
2021/11/15 11:31:37;;;;;;;;;;;;;;;6.95;92.05;99275.25;1757414;80;24013;-95
2021/11/15 11:34:03;;;;;;;;;;;;;;;6.92;92.05;99276.69;1782833;79;20227;-95
2021/11/15 11:36:30;;;;;;;;;;;;;;;6.90;92.02;99273.75;1783260;80;25230;-95
2021/11/15 11:38:56;;;;;;;;;;;;;;;6.77;91.94;99278.59;1783823;80;20243;-96
2021/11/15 11:41:22;;;;;;;;;;;;;;;6.78;91.87;99275.55;1783922;80;26186;-95
2021/11/15 11:43:49;;;;;;;;;;;;;;;6.81;91.79;99280.19;1757380;80;20310;-96
2021/11/15 11:46:17;;;;;;;;;;;;;;;6.87;91.77;99269.53;1787235;79;20200;-94
2021/11/15 11:48:45;;;;;;;;;;;;;;;6.94;91.74;99270.09;1793040;79;24990;-95
2021/11/15 11:54:43;;;;;;;;;;;;;;;6.79;91.63;99271.59;1792197;80;23915;-94
2021/11/15 12:00:32;;;;;;;;;;;;;;;6.77;91.46;99266.89;1792496;80;20174;-94
2021/11/15 12:03:00;;;;;;;;;;;;;;;6.73;91.38;99269.23;1792387;80;24900;-95
2021/11/15 12:05:30;;;;;;;;;;;;;;;6.67;91.32;99269.48;1792306;79;22076;-95
2021/11/15 12:07:58;;;;;;;;;;;;;;;6.59;91.25;99274.16;1792522;80;26199;-92
2021/11/15 12:10:43;;;;;;;;;;;;;;;6.54;91.17;99268.30;1792082;80;24287;-95
2021/11/15 12:13:11;;;;;;;;;;;;;;;6.49;91.11;99272.36;1760692;81;20163;-95
2021/11/15 12:18:58;;;;;;;;;;;;;;;6.47;90.97;99266.84;1760941;81;20241;-93
2021/11/15 12:21:27;;;;;;;;;;;;;;;6.45;90.92;99275.16;1773554;80;26377;-95
2021/11/15 12:23:55;;;;;;;;;;;;;;;6.40;90.91;99271.89;1791416;78;24639;-95
2021/11/15 12:26:24;;;;;;;;;;;;;;;6.39;90.87;99277.98;1792414;80;20188;-95
2021/11/15 12:29:02;;;;;;;;;;;;;;;6.42;90.86;99270.09;1768161;80;25123;-93
2021/11/15 12:31:44;;;;;;;;;;;;;;;6.45;90.87;99279.05;1792456;78;22240;-96
2021/11/15 12:34:10;;;;;;;;;;;;;;;6.41;90.84;99271.84;1792384;80;26059;-95
2021/11/15 12:36:46;;;;;;;;;;;;;;;6.36;90.82;99278.13;1792797;80;24556;-95
2021/11/15 12:39:14;;;;;;;;;;;;;;;6.35;90.80;99279.03;1792839;80;20204;-94
2021/11/15 12:41:41;;;;;;;;;;;;;;;6.30;90.78;99279.21;1793927;80;24973;-95
2021/11/15 12:44:15;;;;;;;;;;;;;;;6.24;90.74;99275.55;1792287;80;21952;-95
2021/11/15 12:46:46;;;;;;;;;;;;;;;6.26;90.70;99282.39;1791314;80;25979;-95
2021/11/15 12:49:22;;;;;;;;;;;;;;;6.26;90.69;99277.20;1792524;80;24564;-95
2021/11/15 12:51:52;;;;;;;;;;;;;;;6.24;90.69;99275.55;1794760;80;20218;-94
2021/11/15 12:54:18;;;;;;;;;;;;;;;6.23;90.67;99277.30;1794545;80;24932;-95
2021/11/15 12:56:44;;;;;;;;;;;;;;;6.24;90.67;99275.09;1794843;80;20232;-93
2021/11/15 12:59:11;;;;;;;;;;;;;;;6.28;90.67;99274.52;1795015;80;26104;-94
2021/11/15 13:01:37;;;;;;;;;;;;;;;6.31;90.66;99277.02;1794718;80;24465;-94
2021/11/15 13:04:03;;;;;;;;;;;;;;;6.33;90.71;99276.48;1794623;80;20230;-95
2021/11/15 13:06:29;;;;;;;;;;;;;;;6.38;90.72;99276.32;1794218;80;24994;-94
2021/11/15 13:08:55;;;;;;;;;;;;;;;6.44;90.74;99280.80;1794628;80;22031;-95
2021/11/15 13:11:22;;;;;;;;;;;;;;;6.48;90.78;99275.05;1794710;80;21192;-94
2021/11/15 13:13:49;;;;;;;;;;;;;;;6.50;90.78;99279.71;1794395;80;24476;-96
2021/11/15 13:16:18;;;;;;;;;;;;;;;6.51;90.82;99275.77;1794535;80;20459;-95
2021/11/15 13:18:45;;;;;;;;;;;;;;;6.52;90.81;99276.61;1794773;80;25191;-94
2021/11/15 13:21:12;;;;;;;;;;;;;;;6.51;90.82;99277.06;1790553;79;20290;-96
2021/11/15 13:23:39;;;;;;;;;;;;;;;6.53;90.82;99275.70;1794406;80;26023;-96
2021/11/15 13:26:07;;;;;;;;;;;;;;;6.54;90.79;99277.41;1796067;80;24390;-96
2021/11/15 13:28:35;;;;;;;;;;;;;;;6.51;90.79;99270.56;1795502;80;20153;-96
2021/11/15 13:31:01;;;;;;;;;;;;;;;6.55;90.77;99277.77;1795937;79;25128;-95
2021/11/15 13:36:49;;;;;;;;;;;;;;;6.50;90.74;99277.96;1794296;80;22088;-95
2021/11/15 13:39:15;;;;;;;;;;;;;;;6.49;90.71;99278.05;1794488;80;24576;-95
2021/11/15 13:41:41;;;;;;;;;;;;;;;6.48;90.68;99279.80;1795053;80;20242;-95
2021/11/15 13:44:07;;;;;;;;;;;;;;;6.47;90.67;99280.70;1794443;80;20249;-95
2021/11/15 13:46:34;;;;;;;;;;;;;;;6.52;90.65;99277.45;1790678;80;20511;-95
2021/11/15 13:49:01;;;;;;;;;;;;;;;6.50;90.62;99281.86;1772016;80;26004;-96
2021/11/15 13:51:27;;;;;;;;;;;;;;;6.52;90.63;99287.86;1787262;79;24412;-96
2021/11/15 13:53:53;;;;;;;;;;;;;;;6.54;90.63;99284.75;1787488;79;20176;-96
2021/11/15 13:56:19;;;;;;;;;;;;;;;6.51;90.60;99277.52;1787386;80;25038;-96
2021/11/15 13:58:45;;;;;;;;;;;;;;;6.53;90.61;99284.36;1787356;79;22778;-95